createdAt,value
2023-04-12T00:00:11.330Z,1.60
2023-04-12T00:03:03.220Z,1.50
2023-04-12T00:05:54.947Z,1.60
2023-04-12T00:08:46.793Z,1.50
2023-04-12T00:11:35.166Z,1.73
2023-04-12T00:14:23.573Z,1.67
2023-04-12T00:17:11.970Z,1.47
2023-04-12T00:20:01.723Z,1.50
2023-04-12T00:22:50.206Z,1.50
2023-04-12T00:25:39.358Z,1.60
2023-04-12T00:28:28.341Z,1.50
2023-04-12T00:31:16.872Z,1.50
2023-04-12T00:34:05.237Z,1.67
2023-04-12T00:36:55.019Z,1.30
2023-04-12T00:39:43.407Z,1.40
2023-04-12T00:42:31.914Z,1.37
2023-04-12T00:45:22.135Z,1.37
2023-04-12T00:48:10.540Z,1.30
2023-04-12T00:50:58.951Z,1.50
2023-04-12T00:53:48.743Z,1.20
2023-04-12T00:56:38.153Z,1.40
2023-04-12T00:59:27.251Z,1.43
2023-04-12T01:02:17.500Z,1.40
2023-04-12T01:05:07.250Z,1.40
2023-04-12T01:08:02.095Z,1.20
2023-04-12T01:10:57.678Z,1.33
2023-04-12T01:13:54.239Z,1.33
2023-04-12T01:16:46.290Z,1.47
2023-04-12T01:19:53.604Z,1.30
2023-04-12T01:23:20.630Z,1.17
2023-04-12T01:26:37.216Z,1.60
2023-04-12T01:29:28.430Z,1.50
2023-04-12T01:32:16.933Z,1.50
2023-04-12T01:35:07.145Z,1.30
2023-04-12T01:37:56.032Z,1.20
2023-04-12T01:40:44.453Z,1.70
2023-04-12T01:43:58.131Z,1.40
2023-04-12T01:46:48.453Z,1.50
2023-04-12T01:49:43.168Z,1.50
2023-04-12T01:52:33.991Z,1.53
2023-04-12T01:55:23.268Z,1.30
2023-04-12T01:58:12.916Z,1.50
2023-04-12T02:01:03.021Z,1.40
2023-04-12T02:03:53.579Z,1.60
2023-04-12T02:06:42.803Z,1.40
2023-04-12T02:09:31.254Z,1.63
2023-04-12T02:12:19.714Z,1.70
2023-04-12T02:15:09.216Z,1.60
2023-04-12T02:17:59.639Z,1.43
2023-04-12T02:20:50.126Z,1.53
2023-04-12T02:23:38.496Z,1.40
2023-04-12T02:26:27.907Z,1.80
2023-04-12T02:29:16.738Z,1.60
2023-04-12T02:32:07.428Z,1.50
2023-04-12T02:34:57.708Z,1.33
2023-04-12T02:37:48.633Z,1.40
2023-04-12T02:40:40.727Z,1.30
2023-04-12T02:43:30.568Z,1.50
2023-04-12T02:46:24.663Z,1.70
2023-04-12T02:49:18.268Z,1.63
2023-04-12T02:52:08.950Z,1.43
2023-04-12T02:55:06.368Z,1.40
2023-04-12T02:57:55.173Z,1.60
2023-04-12T03:00:46.472Z,1.50
2023-04-12T03:03:37.184Z,1.40
2023-04-12T03:06:43.317Z,1.40
2023-04-12T03:09:32.555Z,1.50
2023-04-12T03:12:22.272Z,1.40
2023-04-12T03:15:23.377Z,1.17
2023-04-12T03:18:13.277Z,1.37
2023-04-12T03:21:10.613Z,1.77
2023-04-12T03:24:05.343Z,1.20
2023-04-12T03:26:53.854Z,1.17
2023-04-12T03:29:47.779Z,1.30
2023-04-12T03:32:36.796Z,1.37
2023-04-12T03:35:26.151Z,1.57
2023-04-12T03:38:14.925Z,1.20
2023-04-12T03:41:04.559Z,1.20
2023-04-12T03:43:58.680Z,1.00
2023-04-12T03:46:49.583Z,1.27
2023-04-12T03:49:39.429Z,1.30
2023-04-12T03:52:32.665Z,1.30
2023-04-12T03:55:21.457Z,1.47
2023-04-12T03:58:13.480Z,1.30
2023-04-12T04:01:06.857Z,1.20
2023-04-12T04:03:58.930Z,1.30
2023-04-12T04:06:48.676Z,1.30
2023-04-12T04:09:37.636Z,1.40
2023-04-12T04:12:28.061Z,1.20
2023-04-12T04:15:17.259Z,1.27
2023-04-12T04:18:05.832Z,1.10
2023-04-12T04:20:55.710Z,1.37
2023-04-12T04:23:48.000Z,1.30
2023-04-12T04:26:38.321Z,1.30
2023-04-12T04:29:44.408Z,1.47
2023-04-12T04:32:34.987Z,1.47
2023-04-12T04:35:24.272Z,1.23
2023-04-12T04:38:28.450Z,1.33
2023-04-12T04:41:26.339Z,1.70
2023-04-12T04:44:20.611Z,1.40
2023-04-12T04:47:16.268Z,1.57
2023-04-12T04:50:04.948Z,1.27
2023-04-12T04:52:53.526Z,2.00
2023-04-12T04:55:43.937Z,1.50
2023-04-12T04:58:32.567Z,1.10
2023-04-12T05:01:25.815Z,1.17
2023-04-12T05:04:15.079Z,1.50
2023-04-12T05:07:05.012Z,1.30
2023-04-12T05:09:53.448Z,1.53
2023-04-12T05:12:43.870Z,1.43
2023-04-12T05:15:35.293Z,1.30
2023-04-12T05:18:23.729Z,1.40
2023-04-12T05:21:12.474Z,1.43
2023-04-12T05:24:01.786Z,1.50
2023-04-12T05:26:52.033Z,1.30
2023-04-12T05:29:41.944Z,1.47
2023-04-12T05:32:31.191Z,1.50
2023-04-12T05:35:19.972Z,1.23
2023-04-12T05:38:10.100Z,1.30
2023-04-12T05:40:58.620Z,1.20
2023-04-12T05:43:47.013Z,1.10
2023-04-12T05:46:37.178Z,1.50
2023-04-12T05:49:26.358Z,1.07
2023-04-12T05:52:14.926Z,1.30
2023-04-12T05:55:03.317Z,1.03
2023-04-12T05:57:52.360Z,1.40
2023-04-12T06:00:43.121Z,1.20
2023-04-12T06:03:33.907Z,1.13
2023-04-12T06:06:30.467Z,1.20
2023-04-12T06:09:20.895Z,1.57
2023-04-12T06:12:09.360Z,1.40
2023-04-12T06:14:57.944Z,1.10
2023-04-12T06:17:46.834Z,1.20
2023-04-12T06:20:40.010Z,1.40
2023-04-12T06:23:28.450Z,1.17
2023-04-12T06:26:18.403Z,1.27
2023-04-12T06:29:07.149Z,1.40
2023-04-12T06:31:56.292Z,1.20
2023-04-12T06:34:44.868Z,1.10
2023-04-12T06:37:38.711Z,1.20
2023-04-12T06:40:27.526Z,1.20
2023-04-12T06:43:19.102Z,1.10
2023-04-12T06:46:09.378Z,1.43
2023-04-12T06:48:57.991Z,1.13
2023-04-12T06:51:46.906Z,1.17
2023-04-12T06:54:38.838Z,1.20
2023-04-12T06:57:27.160Z,1.30
2023-04-12T07:00:16.147Z,1.10
2023-04-12T07:03:04.851Z,1.00
2023-04-12T07:05:56.472Z,1.07
2023-04-12T07:08:44.817Z,1.23
2023-04-12T07:11:34.868Z,1.10
2023-04-12T07:14:23.251Z,1.10
2023-04-12T07:17:11.607Z,1.10
2023-04-12T07:20:00.197Z,1.00
2023-04-12T07:22:48.610Z,1.37
2023-04-12T07:25:38.717Z,1.03
2023-04-12T07:28:28.803Z,1.20
2023-04-12T07:31:17.178Z,1.10
2023-04-12T07:34:05.748Z,1.10
2023-04-12T07:36:54.221Z,0.90
2023-04-12T07:39:42.598Z,1.20
2023-04-12T07:42:30.960Z,1.00
2023-04-12T07:45:23.340Z,1.00
2023-04-12T07:48:12.176Z,1.20
2023-04-12T07:51:00.512Z,1.20
2023-04-12T07:53:49.271Z,1.00
2023-04-12T07:56:37.861Z,1.27
2023-04-12T07:59:26.345Z,1.00
2023-04-12T08:02:24.500Z,1.33
2023-04-12T08:05:13.014Z,1.10
2023-04-12T08:08:01.349Z,1.10
2023-04-12T08:10:50.314Z,1.10
2023-04-12T08:13:38.711Z,0.90
2023-04-12T08:16:27.465Z,1.13
2023-04-12T08:19:17.260Z,1.20
2023-04-12T08:22:05.593Z,1.20
2023-04-12T08:24:53.905Z,1.10
2023-04-12T08:27:43.632Z,1.30
2023-04-12T08:30:32.062Z,1.10
2023-04-12T08:33:20.413Z,1.20
2023-04-12T08:36:11.203Z,1.00
2023-04-12T08:39:00.582Z,1.17
2023-04-12T08:41:49.036Z,1.07
2023-04-12T08:44:39.030Z,1.00
2023-04-12T08:47:27.891Z,1.00
2023-04-12T08:50:17.347Z,1.10
2023-04-12T08:53:07.045Z,1.10
2023-04-12T08:55:55.525Z,1.00
2023-04-12T08:58:49.021Z,1.17
2023-04-12T09:01:38.267Z,1.00
2023-04-12T09:04:27.354Z,1.10
2023-04-12T09:07:15.830Z,1.13
2023-04-12T09:10:06.442Z,1.00
2023-04-12T09:12:54.869Z,1.10
2023-04-12T09:15:49.900Z,1.47
2023-04-12T09:18:51.234Z,1.00
2023-04-12T09:21:53.513Z,1.30
2023-04-12T09:24:48.336Z,1.10
2023-04-12T09:27:48.853Z,1.10
2023-04-12T09:30:43.514Z,0.93
2023-04-12T09:33:36.379Z,1.10
2023-04-12T09:36:38.715Z,1.10
2023-04-12T09:39:34.117Z,1.20
2023-04-12T09:42:33.356Z,1.13
2023-04-12T09:45:26.451Z,1.00
2023-04-12T09:48:20.410Z,1.00
2023-04-12T09:51:09.153Z,1.00
2023-04-12T09:54:00.547Z,1.03
2023-04-12T09:56:50.006Z,1.07
2023-04-12T09:59:40.083Z,1.10
2023-04-12T10:02:30.335Z,1.00
2023-04-12T10:05:20.965Z,1.10
2023-04-12T10:08:12.109Z,1.00
2023-04-12T10:11:00.872Z,1.00
2023-04-12T10:13:49.870Z,1.03
2023-04-12T10:16:41.781Z,1.00
2023-04-12T10:19:33.621Z,1.00
2023-04-12T10:22:22.016Z,1.20
2023-04-12T10:25:15.256Z,1.10
2023-04-12T10:28:15.482Z,1.13
2023-04-12T10:31:28.376Z,1.00
2023-04-12T10:34:16.918Z,1.00
2023-04-12T10:37:06.662Z,0.93
2023-04-12T10:39:56.151Z,1.00
2023-04-12T10:42:44.616Z,1.00
2023-04-12T10:45:39.884Z,1.10
2023-04-12T10:48:35.433Z,1.10
2023-04-12T10:51:26.673Z,1.10
2023-04-12T10:54:36.253Z,1.10
2023-04-12T10:57:45.541Z,1.17
2023-04-12T11:01:08.238Z,1.10
2023-04-12T11:04:14.854Z,1.10
2023-04-12T11:07:10.273Z,1.00
2023-04-12T11:10:20.163Z,1.00
2023-04-12T11:13:10.345Z,1.13
2023-04-12T11:16:02.686Z,1.07
2023-04-12T11:18:51.259Z,0.90
2023-04-12T11:21:40.276Z,0.90
2023-04-12T11:24:28.672Z,0.90
2023-04-12T11:27:19.604Z,0.90
2023-04-12T11:30:09.354Z,1.07
2023-04-12T11:32:59.360Z,0.90
2023-04-12T11:35:47.787Z,1.30
2023-04-12T11:38:38.148Z,0.90
2023-04-12T11:41:26.575Z,1.00
2023-04-12T11:44:19.027Z,0.90
2023-04-12T11:47:07.433Z,1.10
2023-04-12T11:49:57.224Z,1.00
2023-04-12T11:52:45.528Z,1.23
2023-04-12T11:55:33.984Z,1.00
2023-04-12T11:58:24.416Z,1.00
2023-04-12T12:01:15.329Z,1.00
2023-04-12T12:04:04.132Z,0.90
2023-04-12T12:06:53.278Z,1.00
2023-04-12T12:09:42.496Z,0.90
2023-04-12T12:12:30.875Z,1.00
2023-04-12T12:15:19.298Z,0.90
2023-04-12T12:18:10.782Z,1.00
2023-04-12T12:20:59.171Z,0.90
2023-04-12T12:23:48.877Z,0.90
2023-04-12T12:26:37.432Z,1.10
2023-04-12T12:29:27.618Z,0.90
2023-04-12T12:32:15.972Z,0.90
2023-04-12T12:35:10.292Z,1.00
2023-04-12T12:37:59.049Z,1.00
2023-04-12T12:40:47.461Z,1.00
2023-04-12T12:43:35.970Z,0.90
2023-04-12T12:46:24.432Z,0.90
2023-04-12T12:49:13.078Z,1.10
2023-04-12T12:52:02.840Z,1.10
2023-04-12T12:54:51.200Z,1.00
2023-04-12T12:57:39.531Z,1.10
2023-04-12T13:00:29.278Z,0.90
2023-04-12T13:03:17.916Z,0.90
2023-04-12T13:06:07.095Z,1.00
2023-04-12T13:08:57.030Z,1.00
2023-04-12T13:11:47.032Z,1.10
2023-04-12T13:14:35.654Z,1.00
2023-04-12T13:17:24.060Z,1.10
2023-04-12T13:20:13.627Z,1.00
2023-04-12T13:23:02.219Z,0.90
2023-04-12T13:25:53.147Z,1.10
2023-04-12T13:28:41.497Z,0.90
2023-04-12T13:31:29.852Z,1.10
2023-04-12T13:34:18.365Z,1.00
2023-04-12T13:37:08.153Z,0.90
2023-04-12T13:39:56.549Z,1.10
2023-04-12T13:42:46.311Z,0.90
2023-04-12T13:45:34.812Z,1.00
2023-04-12T13:48:23.428Z,1.00
2023-04-12T13:51:11.743Z,1.27
2023-04-12T13:54:01.558Z,1.10
2023-04-12T13:56:50.106Z,1.00
2023-04-12T13:59:39.884Z,1.20
2023-04-12T14:02:30.701Z,1.20
2023-04-12T14:05:19.766Z,1.00
2023-04-12T14:08:08.123Z,1.03
2023-04-12T14:10:56.550Z,0.90
2023-04-12T14:14:09.791Z,0.90
2023-04-12T14:17:01.975Z,1.30
2023-04-12T14:19:51.055Z,1.00
2023-04-12T14:22:39.396Z,0.90
2023-04-12T14:25:27.785Z,1.07
2023-04-12T14:28:17.134Z,0.90
2023-04-12T14:31:06.606Z,1.30
2023-04-12T14:33:56.879Z,1.03
2023-04-12T14:36:45.454Z,0.90
2023-04-12T14:39:35.715Z,1.00
2023-04-12T14:42:25.420Z,0.90
2023-04-12T14:45:14.861Z,0.90
2023-04-12T14:48:03.277Z,1.10
2023-04-12T14:50:54.853Z,0.90
2023-04-12T14:53:43.568Z,0.93
2023-04-12T14:56:34.548Z,0.90
2023-04-12T14:59:27.233Z,1.00
2023-04-12T15:02:15.745Z,1.10
2023-04-12T15:05:07.481Z,0.93
2023-04-12T15:07:57.422Z,1.00
2023-04-12T15:10:45.800Z,0.90
2023-04-12T15:13:58.920Z,0.90
2023-04-12T15:16:49.251Z,1.00
2023-04-12T15:19:37.768Z,1.10
2023-04-12T15:22:26.515Z,1.20
2023-04-12T15:25:16.245Z,1.10
2023-04-12T15:28:04.995Z,0.87
2023-04-12T15:30:54.573Z,0.90
2023-04-12T15:33:42.947Z,0.90
2023-04-12T15:36:34.625Z,1.00
2023-04-12T15:39:23.037Z,1.10
2023-04-12T15:42:12.849Z,0.90
2023-04-12T15:45:01.187Z,0.90
2023-04-12T15:47:49.601Z,1.00
2023-04-12T15:50:37.992Z,1.00
2023-04-12T15:53:28.065Z,1.10
2023-04-12T15:56:20.091Z,0.90
2023-04-12T15:59:10.213Z,0.90
2023-04-12T16:01:58.717Z,1.00
2023-04-12T16:04:47.417Z,0.90
2023-04-12T16:07:35.945Z,0.93
2023-04-12T16:10:24.783Z,1.00
2023-04-12T16:13:13.691Z,1.00
2023-04-12T16:16:03.666Z,1.00
2023-04-12T16:18:52.784Z,0.90
2023-04-12T16:21:44.009Z,1.07
2023-04-12T16:24:32.910Z,1.10
2023-04-12T16:27:23.425Z,1.00
2023-04-12T16:30:15.599Z,1.00
2023-04-12T16:33:05.544Z,1.00
2023-04-12T16:35:54.032Z,1.37
2023-04-12T16:38:42.704Z,1.10
2023-04-12T16:41:31.650Z,0.90
2023-04-12T16:44:19.975Z,0.97
2023-04-12T16:47:09.464Z,0.90
2023-04-12T16:50:02.509Z,0.90
2023-04-12T16:52:53.940Z,1.00
2023-04-12T16:55:44.034Z,1.03
2023-04-12T16:58:32.999Z,0.97
2023-04-12T17:01:21.934Z,0.90
2023-04-12T17:04:10.626Z,0.90
2023-04-12T17:07:00.524Z,0.90
2023-04-12T17:09:48.951Z,1.00
2023-04-12T17:12:37.309Z,1.00
2023-04-12T17:15:26.588Z,1.27
2023-04-12T17:18:15.069Z,1.20
2023-04-12T17:21:03.581Z,1.00
2023-04-12T17:23:53.553Z,1.00
2023-04-12T17:26:42.127Z,1.10
2023-04-12T17:29:30.508Z,1.00
2023-04-12T17:32:18.866Z,1.00
2023-04-12T17:35:08.234Z,1.00
2023-04-12T17:37:56.857Z,0.90
2023-04-12T17:40:46.608Z,1.00
2023-04-12T17:43:35.073Z,1.00
2023-04-12T17:46:24.258Z,1.20
2023-04-12T17:49:12.686Z,1.23
2023-04-12T17:52:02.026Z,1.30
2023-04-12T17:54:51.287Z,1.10
2023-04-12T17:57:41.673Z,1.00
2023-04-12T18:00:30.064Z,1.50
2023-04-12T18:03:18.809Z,1.00
2023-04-12T18:06:08.143Z,1.30
2023-04-12T18:08:56.779Z,1.20
2023-04-12T18:11:45.361Z,0.90
2023-04-12T18:14:35.533Z,0.90
2023-04-12T18:17:26.263Z,1.10
2023-04-12T18:20:16.403Z,1.00
2023-04-12T18:23:05.140Z,0.90
2023-04-12T18:25:53.479Z,0.90
2023-04-12T18:28:41.829Z,1.10
2023-04-12T18:31:31.938Z,1.00
2023-04-12T18:34:20.368Z,1.20
2023-04-12T18:37:08.730Z,1.10
2023-04-12T18:39:57.145Z,1.10
2023-04-12T18:42:45.980Z,1.10
2023-04-12T18:45:34.380Z,0.83
2023-04-12T18:48:24.156Z,1.00
2023-04-12T18:51:13.003Z,0.90
2023-04-12T18:54:01.620Z,1.00
2023-04-12T18:56:50.171Z,1.00
2023-04-12T18:59:38.506Z,0.93
2023-04-12T19:02:28.450Z,1.00
2023-04-12T19:05:18.642Z,0.90
2023-04-12T19:08:07.128Z,0.93
2023-04-12T19:10:56.481Z,0.90
2023-04-12T19:13:44.942Z,0.90
2023-04-12T19:16:33.413Z,0.90
2023-04-12T19:19:22.261Z,2.27
2023-04-12T19:22:12.476Z,0.90
2023-04-12T19:25:00.828Z,0.80
2023-04-12T19:27:49.235Z,0.90
2023-04-12T19:30:37.611Z,0.90
2023-04-12T19:33:26.390Z,1.00
2023-04-12T19:36:15.399Z,0.90
2023-04-12T19:39:05.112Z,0.90
2023-04-12T19:41:53.454Z,0.90
2023-04-12T19:44:42.916Z,0.90
2023-04-12T19:47:31.270Z,0.80
2023-04-12T19:50:19.812Z,0.90
2023-04-12T19:53:08.221Z,0.87
2023-04-12T19:55:58.533Z,0.90
2023-04-12T19:58:47.784Z,0.93
2023-04-12T20:01:48.001Z,1.00
2023-04-12T20:04:37.255Z,0.90
2023-04-12T20:07:25.865Z,1.00
2023-04-12T20:10:15.581Z,0.93
2023-04-12T20:13:09.704Z,0.90
2023-04-12T20:16:00.737Z,0.80
2023-04-12T20:18:50.990Z,0.90
2023-04-12T20:21:40.254Z,0.90
2023-04-12T20:24:30.058Z,0.90
2023-04-12T20:27:20.142Z,0.93
2023-04-12T20:30:11.342Z,0.90
2023-04-12T20:33:01.093Z,0.90
2023-04-12T20:35:50.841Z,0.90
2023-04-12T20:38:39.728Z,1.00
2023-04-12T20:41:28.196Z,0.90
2023-04-12T20:44:16.685Z,0.90
2023-04-12T20:47:07.292Z,1.10
2023-04-12T20:49:56.212Z,1.10
2023-04-12T20:52:45.500Z,1.20
2023-04-12T20:55:34.901Z,1.20
2023-04-12T20:58:23.840Z,0.90
2023-04-12T21:01:14.907Z,1.00
2023-04-12T21:04:06.388Z,0.97
2023-04-12T21:06:57.420Z,1.20
2023-04-12T21:09:45.794Z,0.90
2023-04-12T21:12:34.810Z,0.93
2023-04-12T21:15:23.220Z,0.90
2023-04-12T21:18:12.988Z,1.00
2023-04-12T21:21:03.851Z,1.00
2023-04-12T21:23:52.664Z,1.00
2023-04-12T21:26:41.208Z,0.90
2023-04-12T21:29:33.332Z,0.90
2023-04-12T21:32:21.799Z,0.93
2023-04-12T21:35:11.171Z,0.90
2023-04-12T21:38:00.978Z,1.00
2023-04-12T21:40:49.449Z,1.00
2023-04-12T21:43:38.037Z,0.90
2023-04-12T21:46:27.741Z,0.90
2023-04-12T21:49:16.270Z,1.00
2023-04-12T21:52:05.096Z,0.90
2023-04-12T21:54:55.630Z,1.00
2023-04-12T21:57:44.717Z,0.90
2023-04-12T22:00:33.129Z,1.00
2023-04-12T22:03:21.944Z,1.07
2023-04-12T22:06:11.760Z,0.90
2023-04-12T22:09:02.477Z,0.90
2023-04-12T22:11:52.288Z,1.00
2023-04-12T22:14:46.437Z,1.00
2023-04-12T22:17:35.056Z,0.90
2023-04-12T22:20:23.568Z,1.00
2023-04-12T22:23:11.959Z,0.90
2023-04-12T22:26:00.327Z,0.93
2023-04-12T22:28:50.038Z,0.90
2023-04-12T22:31:39.390Z,0.90
2023-04-12T22:34:28.552Z,0.93
2023-04-12T22:37:16.925Z,1.00
2023-04-12T22:40:11.405Z,0.90
2023-04-12T22:43:00.668Z,1.03
2023-04-12T22:45:53.909Z,0.90
2023-04-12T22:48:42.828Z,1.00
2023-04-12T22:51:31.622Z,0.90
2023-04-12T22:54:20.045Z,0.90
2023-04-12T22:57:08.436Z,0.90
2023-04-12T22:59:57.695Z,0.90
2023-04-12T23:02:48.656Z,0.93
2023-04-12T23:05:37.205Z,0.90
2023-04-12T23:08:25.637Z,0.80
2023-04-12T23:11:14.463Z,0.90
2023-04-12T23:14:04.372Z,0.90
2023-04-12T23:16:52.722Z,0.90
2023-04-12T23:19:44.021Z,1.10
2023-04-12T23:22:56.095Z,0.90
2023-04-12T23:25:45.576Z,0.90
2023-04-12T23:28:34.669Z,0.90
2023-04-12T23:31:23.096Z,1.00
2023-04-12T23:34:11.782Z,0.93
2023-04-12T23:37:01.979Z,1.20
2023-04-12T23:39:50.684Z,0.93
2023-04-12T23:42:38.975Z,1.00
2023-04-12T23:45:27.367Z,0.90
2023-04-12T23:48:16.609Z,0.90
2023-04-12T23:51:06.133Z,1.00
2023-04-12T23:53:55.998Z,0.93
2023-04-12T23:56:44.437Z,0.90
2023-04-12T23:59:32.979Z,0.93
